createdAt,value
2022-10-31T00:03:38.680Z,66485.66
2022-10-31T00:08:42.674Z,66486.13
2022-10-31T00:13:49.216Z,66508.13
2022-10-31T00:18:53.813Z,66530.78
2022-10-31T00:23:59.751Z,66474.31
2022-10-31T00:29:05.302Z,66462.41
2022-10-31T00:34:09.373Z,66457.72
2022-10-31T00:39:13.294Z,66494.63
2022-10-31T00:44:18.945Z,66409.84
2022-10-31T00:49:24.026Z,66447.97
2022-10-31T00:54:28.309Z,66394.97
2022-10-31T00:59:36.266Z,66453.91
2022-10-31T01:04:40.147Z,66453.34
2022-10-31T01:09:44.052Z,66426.13
2022-10-31T01:14:49.275Z,66425.59
2022-10-31T01:19:55.664Z,66427.50
2022-10-31T01:25:00.732Z,66448.06
2022-10-31T01:30:08.663Z,66469.09
2022-10-31T01:35:12.587Z,66479.06
2022-10-31T01:40:16.595Z,66432.84
2022-10-31T01:45:22.086Z,66408.88
2022-10-31T01:50:33.167Z,66382.09
2022-10-31T01:55:40.698Z,66427.22
2022-10-31T02:00:50.705Z,66441.53
2022-10-31T02:05:56.955Z,66384.06
2022-10-31T02:11:03.009Z,66332.19
2022-10-31T02:16:11.350Z,66399.28
2022-10-31T02:21:21.949Z,66347.56
2022-10-31T02:26:51.965Z,66406.09
2022-10-31T02:32:04.529Z,66415.84
2022-10-31T02:37:16.234Z,66488.09
2022-10-31T02:42:31.393Z,66494.72
2022-10-31T02:47:39.845Z,66501.22
2022-10-31T02:52:44.169Z,66430.34
2022-10-31T02:57:48.135Z,66305.72
2022-10-31T03:03:06.457Z,66337.47
2022-10-31T03:08:23.528Z,66374.56
2022-10-31T03:13:36.547Z,66393.28
2022-10-31T03:18:46.105Z,66406.63
2022-10-31T03:23:52.677Z,66393.28
2022-10-31T03:29:02.251Z,66368.13
2022-10-31T03:34:09.823Z,66444.75
2022-10-31T03:39:19.137Z,66425.06
2022-10-31T03:44:26.125Z,66360.47
2022-10-31T03:49:38.208Z,66339.53
2022-10-31T03:54:46.619Z,66295.19
2022-10-31T03:59:55.421Z,66400.81
2022-10-31T04:05:03.379Z,66357.94
2022-10-31T04:10:12.285Z,66362.06
2022-10-31T04:15:21.631Z,66346.97
2022-10-31T04:20:34.880Z,66350.81
2022-10-31T04:25:38.811Z,66340.22
2022-10-31T04:30:43.183Z,66335.78
2022-10-31T04:35:48.978Z,66359.41
2022-10-31T04:40:53.509Z,66295.00
2022-10-31T04:46:17.565Z,66281.59
2022-10-31T04:51:22.908Z,66307.97
2022-10-31T04:56:26.849Z,66305.28
2022-10-31T05:01:35.626Z,66271.03
2022-10-31T05:06:41.026Z,66283.75
2022-10-31T05:11:46.048Z,66316.44
2022-10-31T05:17:15.688Z,66334.25
2022-10-31T05:22:57.723Z,66426.03
2022-10-31T05:28:02.503Z,66345.50
2022-10-31T05:33:06.533Z,66349.28
2022-10-31T05:38:30.237Z,66309.84
2022-10-31T05:43:38.837Z,66307.34
2022-10-31T05:48:44.294Z,66379.22
2022-10-31T05:54:10.851Z,66504.91
2022-10-31T05:59:20.201Z,66491.03
2022-10-31T06:04:25.062Z,66538.75
2022-10-31T06:09:31.226Z,66491.66
2022-10-31T06:14:35.225Z,66351.97
2022-10-31T06:19:40.995Z,66397.13
2022-10-31T06:24:47.885Z,66369.66
2022-10-31T06:30:04.452Z,66456.03
2022-10-31T06:35:10.278Z,66450.84
2022-10-31T06:40:16.657Z,66509.28
2022-10-31T06:45:49.843Z,66603.44
2022-10-31T06:50:58.588Z,66653.28
2022-10-31T06:56:06.488Z,66668.34
2022-10-31T07:01:16.516Z,66564.03
2022-10-31T07:06:20.615Z,66627.94
2022-10-31T07:11:26.305Z,66558.22
2022-10-31T07:16:32.762Z,66609.81
2022-10-31T07:21:38.037Z,66735.16
2022-10-31T07:26:49.123Z,66709.41
2022-10-31T07:31:53.681Z,66737.38
2022-10-31T07:37:03.456Z,66730.91
2022-10-31T07:42:09.379Z,66774.91
2022-10-31T07:47:14.718Z,66745.97
2022-10-31T07:52:43.698Z,66668.44
2022-10-31T07:58:10.141Z,66780.97
2022-10-31T08:03:19.234Z,66796.50
2022-10-31T08:08:41.831Z,66765.81
2022-10-31T08:13:49.150Z,66759.44
2022-10-31T08:18:54.649Z,66811.59
2022-10-31T08:23:58.859Z,66845.53
2022-10-31T08:29:06.441Z,66854.13
2022-10-31T08:34:13.009Z,66833.13
2022-10-31T08:39:35.309Z,66719.00
2022-10-31T08:44:40.721Z,66835.28
2022-10-31T08:49:46.002Z,66917.22
2022-10-31T08:54:51.567Z,66814.66
2022-10-31T09:00:17.446Z,66873.50
2022-10-31T09:05:36.228Z,66896.66
2022-10-31T09:10:40.992Z,66965.06
2022-10-31T09:15:48.965Z,66933.94
2022-10-31T09:21:02.501Z,66799.13
2022-10-31T09:26:11.709Z,66788.50
2022-10-31T09:31:20.685Z,66944.72
2022-10-31T09:36:39.176Z,67043.78
2022-10-31T09:42:29.602Z,66922.38
2022-10-31T09:47:46.084Z,67010.41
2022-10-31T09:53:26.026Z,67021.19
2022-10-31T09:58:34.190Z,66983.59
2022-10-31T10:03:47.859Z,67031.53
2022-10-31T10:09:24.496Z,66949.50
2022-10-31T10:15:07.899Z,66952.19
2022-10-31T10:20:30.108Z,66985.59
2022-10-31T10:25:40.711Z,67054.09
2022-10-31T10:30:47.519Z,67165.72
2022-10-31T10:35:59.156Z,67160.34
2022-10-31T10:41:07.816Z,67194.94
2022-10-31T10:46:37.483Z,67090.78
2022-10-31T10:57:33.441Z,67163.56
2022-10-31T11:02:37.386Z,67194.28
2022-10-31T11:07:42.757Z,67173.28
2022-10-31T11:12:47.583Z,67101.03
2022-10-31T11:17:53.763Z,67177.66
2022-10-31T11:23:07.640Z,67272.63
2022-10-31T11:28:12.102Z,67244.09
2022-10-31T11:33:24.272Z,67221.84
2022-10-31T11:38:36.286Z,67264.13
2022-10-31T11:43:41.341Z,67284.59
2022-10-31T11:48:49.977Z,67524.69
2022-10-31T11:54:00.155Z,67559.13
2022-10-31T11:59:16.959Z,67625.28
2022-10-31T12:04:25.700Z,67646.38
2022-10-31T12:09:34.799Z,67741.72
2022-10-31T12:14:49.497Z,67699.56
2022-10-31T12:20:05.354Z,67780.72
2022-10-31T12:25:25.413Z,67667.50
2022-10-31T12:30:43.957Z,67697.75
2022-10-31T12:35:55.079Z,67736.84
2022-10-31T12:41:27.161Z,67717.38
2022-10-31T12:46:46.270Z,67678.94
2022-10-31T12:52:02.928Z,67654.09
2022-10-31T12:57:19.330Z,67640.94
2022-10-31T13:02:29.589Z,67775.88
2022-10-31T13:07:39.832Z,67858.78
2022-10-31T13:12:47.922Z,67810.56
2022-10-31T13:17:56.678Z,67726.00
2022-10-31T13:23:18.167Z,67699.94
2022-10-31T13:28:38.996Z,67748.78
2022-10-31T13:33:48.890Z,67738.91
2022-10-31T13:38:55.565Z,67849.63
2022-10-31T13:44:08.012Z,67793.13
2022-10-31T13:49:42.557Z,67756.84
2022-10-31T13:54:49.085Z,67712.47
2022-10-31T13:59:57.644Z,67780.69
2022-10-31T14:05:04.066Z,67706.56
2022-10-31T14:10:22.461Z,67727.09
2022-10-31T14:15:29.991Z,67651.22
2022-10-31T14:20:40.089Z,67529.53
2022-10-31T14:25:44.061Z,67517.09
2022-10-31T14:30:56.121Z,67505.19
2022-10-31T14:36:05.573Z,67608.03
2022-10-31T14:41:33.273Z,67621.44
2022-10-31T14:46:50.476Z,67481.81
2022-10-31T14:51:54.990Z,67425.63
2022-10-31T15:01:58.433Z,67324.50
2022-10-31T15:07:09.172Z,67188.38
2022-10-31T15:12:25.854Z,67095.56
2022-10-31T15:17:31.350Z,67009.84
2022-10-31T15:22:35.476Z,67028.72
2022-10-31T15:27:42.740Z,67023.88
2022-10-31T15:32:57.461Z,66979.81
2022-10-31T15:38:03.255Z,66923.53
2022-10-31T15:43:08.813Z,66904.28
2022-10-31T15:48:19.684Z,66882.66
2022-10-31T15:53:27.352Z,66911.69
2022-10-31T15:58:34.852Z,66902.66
2022-10-31T16:03:40.192Z,66912.84
2022-10-31T16:08:50.333Z,66926.22
2022-10-31T16:13:57.243Z,66881.59
2022-10-31T16:19:04.371Z,66812.66
2022-10-31T16:24:18.652Z,66808.97
2022-10-31T16:29:34.790Z,66856.81
2022-10-31T16:34:40.131Z,66858.03
2022-10-31T16:39:44.175Z,66815.81
2022-10-31T16:44:49.881Z,66774.97
2022-10-31T16:49:55.337Z,66761.50
2022-10-31T16:54:59.492Z,66741.59
2022-10-31T17:00:04.387Z,66778.19
2022-10-31T17:05:13.499Z,66819.59
2022-10-31T17:10:19.192Z,66780.81
2022-10-31T17:15:26.298Z,66795.03
2022-10-31T17:20:33.039Z,66745.91
2022-10-31T17:25:37.220Z,66736.06
2022-10-31T17:30:41.887Z,66716.25
2022-10-31T17:35:47.230Z,66712.56
2022-10-31T17:40:51.356Z,66680.25
2022-10-31T17:45:55.511Z,66687.69
2022-10-31T17:51:03.156Z,66629.06
2022-10-31T17:56:12.136Z,66663.56
2022-10-31T18:01:18.181Z,66668.88
2022-10-31T18:06:23.520Z,66631.84
2022-10-31T18:11:27.635Z,66634.94
2022-10-31T18:16:31.739Z,66688.16
2022-10-31T18:21:37.579Z,66588.22
2022-10-31T18:26:41.552Z,66595.28
2022-10-31T18:31:48.500Z,66589.91
2022-10-31T18:36:53.881Z,66528.56
2022-10-31T18:41:58.254Z,66585.16
2022-10-31T18:47:02.082Z,66644.59
2022-10-31T18:52:07.371Z,66589.31
2022-10-31T18:57:12.031Z,66564.09
2022-10-31T19:02:17.852Z,66548.97
2022-10-31T19:07:23.256Z,66545.19
2022-10-31T19:12:27.285Z,66518.41
2022-10-31T19:17:31.338Z,66503.84
2022-10-31T19:22:36.540Z,66506.69
2022-10-31T19:27:40.661Z,66509.81
2022-10-31T19:32:44.740Z,66479.75
2022-10-31T19:37:49.954Z,66476.59
2022-10-31T19:42:53.957Z,66502.22
2022-10-31T19:47:58.241Z,66461.56
2022-10-31T19:53:06.214Z,66487.19
2022-10-31T19:58:10.110Z,66525.25
2022-10-31T20:03:18.306Z,66544.75
2022-10-31T20:08:26.740Z,66545.75
2022-10-31T20:13:31.954Z,66526.31
2022-10-31T20:18:36.889Z,66515.13
2022-10-31T20:23:42.744Z,66481.91
2022-10-31T20:28:47.589Z,66391.13
2022-10-31T20:33:51.739Z,66387.22
2022-10-31T20:38:57.195Z,66456.13
2022-10-31T20:44:01.182Z,66487.25
2022-10-31T20:49:05.328Z,66540.91
2022-10-31T20:54:14.666Z,66524.78
2022-10-31T20:59:20.021Z,66400.81
2022-10-31T21:04:24.097Z,66403.94
2022-10-31T21:09:29.618Z,66410.50
2022-10-31T21:14:34.185Z,66407.69
2022-10-31T21:19:38.072Z,66411.03
2022-10-31T21:24:43.768Z,66414.16
2022-10-31T21:29:47.651Z,66419.69
2022-10-31T21:34:51.624Z,66447.53
2022-10-31T21:39:56.916Z,66469.47
2022-10-31T21:45:00.813Z,66434.72
2022-10-31T21:50:04.989Z,66429.81
2022-10-31T21:55:11.377Z,66433.03
2022-10-31T22:00:16.104Z,66460.31
2022-10-31T22:05:20.142Z,66438.38
2022-10-31T22:10:25.773Z,66435.19
2022-10-31T22:15:30.234Z,66419.50
2022-10-31T22:20:34.055Z,66448.06
2022-10-31T22:25:39.379Z,66406.63
2022-10-31T22:30:45.992Z,66281.53
2022-10-31T22:35:49.930Z,66229.19
2022-10-31T22:40:58.916Z,66292.94
2022-10-31T22:46:06.350Z,66324.44
2022-10-31T22:51:14.510Z,66273.72
2022-10-31T22:56:22.607Z,66330.94
2022-10-31T23:01:28.397Z,66312.16
2022-10-31T23:06:34.448Z,66291.34
2022-10-31T23:11:40.565Z,66350.34
2022-10-31T23:16:46.898Z,66362.59
2022-10-31T23:21:56.574Z,66393.75
2022-10-31T23:27:08.745Z,66364.75
2022-10-31T23:32:19.324Z,66404.56
2022-10-31T23:37:25.973Z,66385.22
2022-10-31T23:42:31.433Z,66359.28
2022-10-31T23:47:38.365Z,66329.44
2022-10-31T23:52:45.103Z,66290.88
2022-10-31T23:57:50.845Z,66325.03
